Time;durP1;ratioP1;P1;durP2;ratioP2;P2;SDS_P1;SDS_P2;PMS_P1;PMS_P2;Temp;Humidity;BMP_temperature;BMP_pressure;BME280_temperature;BME280_humidity;BME280_pressure;Samples;Min_cycle;Max_cycle;Signal;HPM_P1;HPM_P2
2022/08/15 00:01:22;;;;;;;;;24.00;17.50;;;;;21.75;68.92;100199.88;5097794;27;45395;-54
2022/08/15 00:03:52;;;;;;;;;16.75;16.75;;;;;21.93;68.78;100239.59;5113266;27;45375;-55
2022/08/15 00:06:22;;;;;;;;;24.25;20.75;;;;;21.95;69.12;100232.03;5097965;27;45385;-54
2022/08/15 00:08:51;;;;;;;;;20.50;19.50;;;;;21.97;68.85;100232.63;5097540;27;46516;-54
2022/08/15 00:11:21;;;;;;;;;18.50;16.25;;;;;22.00;68.88;100225.94;5097343;27;45657;-54
2022/08/15 00:13:55;;;;;;;;;19.25;17.75;;;;;22.01;68.62;100219.47;5097753;27;45326;-53
2022/08/15 00:16:21;;;;;;;;;20.00;17.25;;;;;22.01;68.91;100223.00;5097831;27;45295;-55
2022/08/15 00:18:48;;;;;;;;;26.00;21.00;;;;;22.01;68.90;100220.28;5097248;27;46980;-54
2022/08/15 00:21:14;;;;;;;;;20.50;16.75;;;;;22.02;68.95;100211.09;5097335;27;45314;-53
2022/08/15 00:23:40;;;;;;;;;19.25;17.00;;;;;21.92;68.39;100197.31;5097625;27;45390;-54
2022/08/15 00:26:07;;;;;;;;;19.50;18.25;;;;;22.01;68.37;100211.34;5097446;27;45480;-54
2022/08/15 00:28:32;;;;;;;;;21.25;20.75;;;;;22.01;68.34;100222.16;5097178;27;45240;-55
2022/08/15 00:30:58;;;;;;;;;21.00;19.75;;;;;21.97;67.72;100219.09;5097510;27;45839;-56
2022/08/15 00:33:24;;;;;;;;;19.00;18.25;;;;;21.93;68.28;100212.50;5097408;27;45330;-54
2022/08/15 00:35:51;;;;;;;;;24.50;19.00;;;;;21.93;68.07;100220.63;5097558;27;45494;-54
2022/08/15 00:38:19;;;;;;;;;20.00;20.00;;;;;21.77;67.97;100186.13;5096941;27;46081;-55
2022/08/15 00:43:34;;;;;;;;;20.50;20.50;;;;;21.81;67.82;100192.72;5097245;27;45454;-54
2022/08/15 00:46:01;;;;;;;;;24.25;21.00;;;;;21.81;68.29;100204.34;5097509;27;45490;-54
2022/08/15 00:48:42;;;;;;;;;20.67;19.00;;;;;21.80;68.31;100207.31;5112751;27;47499;-54
2022/08/15 00:51:14;;;;;;;;;22.33;22.33;;;;;21.76;68.12;100201.53;5097048;27;45516;-54
2022/08/15 00:53:42;;;;;;;;;19.50;17.25;;;;;21.75;68.03;100201.78;5098184;27;45368;-54
2022/08/15 00:56:11;;;;;;;;;19.33;19.00;;;;;21.73;67.52;100203.88;5100788;27;45189;-54
2022/08/15 00:58:37;;;;;;;;;18.75;17.75;;;;;21.70;67.69;100209.75;5100424;27;45440;-55
2022/08/15 01:01:03;;;;;;;;;20.00;18.75;;;;;21.68;67.63;100200.00;5100757;27;45304;-55
2022/08/15 01:03:33;;;;;;;;;25.33;19.00;;;;;21.63;67.33;100191.75;5100654;27;45419;-54
2022/08/15 01:06:01;;;;;;;;;22.67;18.00;;;;;21.68;67.91;100202.69;5100888;27;45229;-53
2022/08/15 01:08:30;;;;;;;;;26.00;22.67;;;;;21.66;67.40;100204.00;5100577;27;45333;-54
2022/08/15 01:10:58;;;;;;;;;24.00;21.67;;;;;21.60;67.56;100203.03;5100399;27;45346;-54
2022/08/15 01:13:23;;;;;;;;;25.67;20.00;;;;;21.61;68.18;100201.97;5082411;27;45429;-54
2022/08/15 01:15:49;;;;;;;;;20.50;18.75;;;;;21.50;68.35;100180.31;5100615;27;45266;-55
2022/08/15 01:18:15;;;;;;;;;25.00;20.00;;;;;21.58;68.05;100199.75;5100242;27;47199;-54
2022/08/15 01:20:43;;;;;;;;;25.75;20.50;;;;;21.49;67.67;100184.91;5100358;27;45374;-54
2022/08/15 01:23:36;;;;;;;;;18.50;17.75;;;;;21.57;67.99;100202.66;5100462;27;45355;-53
2022/08/15 01:26:06;;;;;;;;;21.00;19.75;;;;;21.55;67.73;100202.09;5100548;27;45541;-55
2022/08/15 01:28:38;;;;;;;;;19.75;18.00;;;;;21.54;67.06;100212.09;5100230;27;45402;-55
2022/08/15 01:31:08;;;;;;;;;22.67;18.33;;;;;21.53;67.70;100205.03;5100319;27;45326;-52
2022/08/15 01:33:39;;;;;;;;;25.67;21.33;;;;;21.52;67.93;100203.38;5100406;27;45304;-54
2022/08/15 01:36:05;;;;;;;;;27.00;23.67;;;;;21.38;67.99;100185.69;5099848;27;45352;-54
2022/08/15 01:38:35;;;;;;;;;24.67;20.67;;;;;21.48;68.00;100207.59;5099985;27;46156;-54
2022/08/15 01:41:32;;;;;;;;;21.67;20.00;;;;;21.45;67.63;100204.50;5099888;27;45310;-54
2022/08/15 01:44:24;;;;;;;;;21.25;19.75;;;;;21.39;67.65;100198.16;5100287;27;45287;-53
2022/08/15 01:47:02;;;;;;;;;24.00;22.00;;;;;21.36;68.04;100201.31;5100262;27;45346;-54
2022/08/15 01:49:35;;;;;;;;;20.67;20.67;;;;;21.33;67.49;100201.78;5100152;27;46210;-52
2022/08/15 01:52:04;;;;;;;;;23.33;22.00;;;;;21.28;68.54;100198.91;5100168;27;45357;-55
2022/08/15 01:54:41;;;;;;;;;25.33;21.33;;;;;21.28;68.20;100204.31;5100166;27;45349;-51
2022/08/15 01:57:08;;;;;;;;;21.67;20.67;;;;;21.20;68.04;100196.56;5100660;27;45349;-53
2022/08/15 01:59:34;;;;;;;;;25.00;23.67;;;;;21.13;68.87;100197.44;5100072;27;46192;-55
2022/08/15 02:02:03;;;;;;;;;23.00;20.00;;;;;21.07;68.95;100190.28;5099667;27;45420;-53
2022/08/15 02:04:33;;;;;;;;;24.33;20.00;;;;;21.08;69.29;100194.63;5099651;27;45353;-53
2022/08/15 02:07:03;;;;;;;;;24.00;23.00;;;;;21.05;69.43;100194.25;5100001;27;45399;-51
2022/08/15 02:09:29;;;;;;;;;33.67;23.67;;;;;21.01;69.28;100199.28;5099401;27;46619;-55
2022/08/15 02:12:00;;;;;;;;;26.67;22.33;;;;;20.96;69.14;100199.16;5099355;27;45395;-53
2022/08/15 02:14:27;;;;;;;;;29.00;19.67;;;;;20.96;69.64;100192.91;5099659;27;45434;-54
2022/08/15 02:16:53;;;;;;;;;25.00;22.00;;;;;20.93;69.49;100200.41;5099658;27;45353;-54
2022/08/15 02:19:18;;;;;;;;;21.67;20.67;;;;;20.90;68.95;100186.56;5099180;27;46998;-53
2022/08/15 02:21:46;;;;;;;;;22.00;20.00;;;;;20.87;69.15;100187.00;5099370;27;45421;-52
2022/08/15 02:24:17;;;;;;;;;28.67;22.00;;;;;20.81;69.48;100179.78;5099503;27;45271;-53
2022/08/15 02:26:43;;;;;;;;;23.00;19.33;;;;;20.82;69.07;100182.28;5099531;27;45432;-53
2022/08/15 02:29:09;;;;;;;;;23.00;21.00;;;;;20.84;68.21;100184.75;5099172;27;46129;-53
2022/08/15 02:31:34;;;;;;;;;24.67;22.00;;;;;20.82;68.87;100189.56;5099309;27;45354;-56
2022/08/15 02:34:02;;;;;;;;;29.33;21.33;;;;;20.78;68.26;100182.97;5099474;27;45317;-54
2022/08/15 02:36:31;;;;;;;;;21.67;20.33;;;;;20.77;68.66;100179.41;5099313;27;45214;-54
2022/08/15 02:38:58;;;;;;;;;27.67;24.67;;;;;20.73;69.13;100178.25;5099260;27;45525;-54
2022/08/15 02:41:33;;;;;;;;;20.00;18.00;;;;;20.72;69.06;100170.34;5098957;27;45295;-56
2022/08/15 02:43:59;;;;;;;;;25.00;21.67;;;;;20.71;69.24;100166.81;5099076;27;45438;-53
2022/08/15 02:46:27;;;;;;;;;23.33;20.67;;;;;20.71;68.82;100168.69;5099349;27;45460;-53
2022/08/15 02:48:53;;;;;;;;;19.67;18.67;;;;;20.65;69.71;100156.94;5098878;27;47246;-53
2022/08/15 02:51:21;;;;;;;;;26.33;24.00;;;;;20.66;70.16;100169.38;5098796;27;45322;-53
2022/08/15 02:53:49;;;;;;;;;28.67;23.00;;;;;20.68;69.83;100164.56;5098957;27;45341;-53
2022/08/15 02:56:17;;;;;;;;;24.67;21.67;;;;;20.67;70.02;100171.03;5098912;27;45448;-55
2022/08/15 02:58:44;;;;;;;;;27.33;22.67;;;;;20.64;69.43;100164.19;5098864;27;47290;-52
2022/08/15 03:01:11;;;;;;;;;30.33;22.67;;;;;20.67;69.73;100162.91;5098709;27;45228;-53
2022/08/15 03:03:42;;;;;;;;;26.00;23.00;;;;;20.67;70.56;100157.50;5098952;27;45216;-55
2022/08/15 03:06:10;;;;;;;;;29.67;23.00;;;;;20.65;70.91;100159.63;5098912;27;45381;-52
2022/08/15 03:08:37;;;;;;;;;28.00;26.00;;;;;20.61;70.21;100161.13;5098438;27;46386;-53
2022/08/15 03:11:05;;;;;;;;;26.33;24.67;;;;;20.61;71.21;100163.84;5098399;27;45413;-52
2022/08/15 03:13:31;;;;;;;;;31.00;24.33;;;;;20.61;70.75;100167.34;5098685;27;45450;-54
2022/08/15 03:15:56;;;;;;;;;25.00;22.00;;;;;20.60;71.53;100159.47;5098357;27;45324;-54
2022/08/15 03:18:25;;;;;;;;;29.00;23.33;;;;;20.59;72.31;100160.53;5098026;27;46265;-54
2022/08/15 03:20:51;;;;;;;;;23.33;23.33;;;;;20.55;72.49;100156.63;5098348;27;45371;-56
2022/08/15 03:23:18;;;;;;;;;31.67;26.33;;;;;20.48;72.52;100158.53;5098409;27;45361;-55
2022/08/15 03:25:48;;;;;;;;;32.33;25.67;;;;;20.47;72.55;100149.59;5098798;27;45362;-55
2022/08/15 03:28:18;;;;;;;;;33.00;25.67;;;;;20.44;72.98;100150.09;5098255;27;46141;-55
2022/08/15 03:30:43;;;;;;;;;30.00;28.00;;;;;20.42;73.01;100155.69;5098403;27;45386;-56
2022/08/15 03:33:09;;;;;;;;;27.67;24.00;;;;;20.44;73.03;100152.78;5098390;27;45309;-54
2022/08/15 03:35:40;;;;;;;;;30.33;25.33;;;;;20.44;72.98;100150.91;5098399;27;45348;-55
2022/08/15 03:38:06;;;;;;;;;21.00;18.00;;;;;20.44;72.85;100150.91;5113916;27;47286;-56
2022/08/15 03:40:33;;;;;;;;;30.67;28.67;;;;;20.42;72.71;100152.16;5079900;27;45562;-56
2022/08/15 03:43:15;;;;;;;;;29.67;26.33;;;;;20.44;72.99;100150.09;5098164;27;45441;-56
2022/08/15 03:45:45;;;;;;;;;23.33;23.33;;;;;20.31;72.53;100140.25;5098277;27;45286;-54
2022/08/15 03:48:10;;;;;;;;;29.33;27.67;;;;;20.42;72.67;100154.88;5098079;27;47051;-51
2022/08/15 03:50:36;;;;;;;;;32.33;26.67;;;;;20.41;72.93;100148.66;5098003;27;45319;-55
2022/08/15 03:53:05;;;;;;;;;30.67;27.33;;;;;20.46;72.84;100147.97;5098086;27;45281;-56
2022/08/15 03:55:34;;;;;;;;;29.00;23.67;;;;;20.48;71.69;100148.59;5098352;27;45384;-55
2022/08/15 03:57:59;;;;;;;;;25.00;21.33;;;;;20.45;71.42;100140.91;5097507;27;46267;-54
2022/08/15 04:00:28;;;;;;;;;24.67;23.67;;;;;20.47;70.22;100143.38;5097869;27;45304;-55
2022/08/15 04:03:08;;;;;;;;;25.33;23.67;;;;;20.41;70.12;100145.94;5097919;27;45301;-55
2022/08/15 04:05:35;;;;;;;;;23.00;22.00;;;;;20.39;69.70;100139.94;5098039;27;45500;-55
2022/08/15 04:08:02;;;;;;;;;27.00;24.33;;;;;20.31;70.53;100120.50;5097650;27;46369;-55
2022/08/15 04:10:28;;;;;;;;;24.33;22.33;;;;;20.35;70.27;100136.06;5079400;27;45439;-56
2022/08/15 04:12:54;;;;;;;;;26.67;23.00;;;;;20.34;70.19;100122.75;5097698;27;45509;-54
2022/08/15 04:15:19;;;;;;;;;24.67;23.67;;;;;20.35;70.48;100122.53;5098095;27;45583;-55
2022/08/15 04:17:45;;;;;;;;;27.33;22.33;;;;;20.38;70.67;100123.94;5097614;27;46979;-54
2022/08/15 04:20:11;;;;;;;;;27.67;24.00;;;;;20.29;70.22;100109.94;5097573;27;45287;-53
2022/08/15 04:22:41;;;;;;;;;24.00;23.00;;;;;20.26;70.52;100110.38;5097565;27;45404;-53
2022/08/15 04:25:11;;;;;;;;;27.33;24.67;;;;;20.36;70.81;100139.56;5097634;27;45432;-52
2022/08/15 04:27:37;;;;;;;;;33.67;29.00;;;;;20.30;71.21;100138.56;5097161;27;46105;-55
2022/08/15 04:30:04;;;;;;;;;23.33;22.33;;;;;20.28;71.17;100138.00;5097253;27;45396;-53
2022/08/15 04:32:30;;;;;;;;;20.33;17.67;;;;;20.18;71.06;100135.81;5097404;27;45518;-54
2022/08/15 04:34:58;;;;;;;;;26.00;21.33;;;;;20.17;69.84;100144.13;5097686;27;45546;-54
2022/08/15 04:37:25;;;;;;;;;31.67;25.33;;;;;20.12;70.75;100144.81;5096983;27;45456;-52
2022/08/15 04:39:50;;;;;;;;;26.67;23.67;;;;;20.08;71.21;100137.38;5097223;27;46115;-56
2022/08/15 04:42:19;;;;;;;;;23.00;22.00;;;;;20.06;71.30;100142.19;5097245;27;45761;-54
2022/08/15 04:44:46;;;;;;;;;25.67;23.67;;;;;20.03;71.54;100139.94;5097434;27;45459;-53
2022/08/15 04:47:12;;;;;;;;;24.00;20.67;;;;;19.96;70.71;100137.28;5096857;27;46223;-54
2022/08/15 04:49:37;;;;;;;;;29.67;27.00;;;;;19.93;71.42;100141.28;5097022;27;45319;-52
2022/08/15 04:52:20;;;;;;;;;25.00;22.67;;;;;19.90;71.67;100138.19;5097117;27;45785;-53
2022/08/15 04:54:46;;;;;;;;;35.33;27.00;;;;;19.92;72.13;100133.38;5097205;27;45461;-53
2022/08/15 04:57:13;;;;;;;;;26.67;24.00;;;;;19.90;71.45;100138.19;5097019;27;47144;-53
2022/08/15 04:59:39;;;;;;;;;28.33;23.00;;;;;19.89;71.58;100125.75;5078560;27;45282;-54
2022/08/15 05:02:09;;;;;;;;;29.00;24.00;;;;;19.89;70.43;100123.06;5097006;27;45177;-53
2022/08/15 05:04:34;;;;;;;;;25.67;21.67;;;;;19.82;70.97;100111.47;5097316;27;45419;-56
2022/08/15 05:07:00;;;;;;;;;24.00;19.00;;;;;19.81;70.87;100126.84;5096731;27;46278;-54
2022/08/15 05:09:25;;;;;;;;;23.00;21.67;;;;;19.81;70.01;100117.94;5096846;27;45433;-56
2022/08/15 05:11:51;;;;;;;;;31.67;22.33;;;;;19.77;71.22;100111.34;5078654;27;45391;-55
2022/08/15 05:14:17;;;;;;;;;24.00;20.67;;;;;19.75;71.31;100111.53;5096916;27;45545;-53
2022/08/15 05:16:42;;;;;;;;;26.33;24.00;;;;;19.75;70.84;100106.13;5096660;27;46196;-51
2022/08/15 05:19:08;;;;;;;;;23.00;20.00;;;;;19.76;71.11;100109.66;5096641;27;45321;-54
2022/08/15 05:21:33;;;;;;;;;20.00;17.33;;;;;19.79;70.76;100114.63;5096786;27;45582;-56
2022/08/15 05:23:58;;;;;;;;;31.00;25.00;;;;;19.82;70.79;100122.28;5096976;27;45249;-56
2022/08/15 05:26:24;;;;;;;;;21.33;18.33;;;;;19.81;70.33;100117.94;5096597;27;46230;-55
2022/08/15 05:28:49;;;;;;;;;22.67;20.00;;;;;19.79;70.10;100123.53;5096560;27;45440;-56
2022/08/15 05:31:14;;;;;;;;;23.67;20.67;;;;;19.75;70.30;100118.81;5096752;27;45362;-53
2022/08/15 05:33:43;;;;;;;;;23.67;22.67;;;;;19.72;70.36;100101.22;5092458;27;45328;-55
2022/08/15 05:36:09;;;;;;;;;24.33;21.00;;;;;19.79;70.60;100114.63;5092580;27;47410;-53
2022/08/15 05:38:48;;;;;;;;;28.00;19.67;;;;;19.82;69.85;100114.19;5095026;27;45417;-57
2022/08/15 05:41:26;;;;;;;;;23.67;20.00;;;;;19.84;70.04;100102.09;5099562;27;45382;-54
2022/08/15 05:44:08;;;;;;;;;23.33;20.00;;;;;19.81;70.04;100112.53;5100178;27;45491;-55
2022/08/15 05:46:53;;;;;;;;;29.67;26.00;;;;;19.84;70.41;100121.00;5099832;27;46047;-53
2022/08/15 05:49:36;;;;;;;;;25.00;21.33;;;;;19.88;70.45;100114.09;5080921;27;45318;-51
2022/08/15 05:52:15;;;;;;;;;29.00;22.33;;;;;19.94;70.83;100115.91;5099998;27;45374;-55
2022/08/15 05:55:34;;;;;;;;;20.00;19.00;;;;;19.98;70.21;100116.31;5100180;27;45370;-54
2022/08/15 05:58:26;;;;;;;;;25.33;21.67;;;;;20.00;69.96;100122.28;5056549;28;45382;-54
2022/08/15 06:01:04;;;;;;;;;24.67;23.67;;;;;19.96;69.52;100118.38;5056663;28;45464;-54
2022/08/15 06:03:31;;;;;;;;;25.00;21.00;;;;;20.00;69.57;100122.28;5057102;28;45358;-54
2022/08/15 06:06:02;;;;;;;;;24.33;21.33;;;;;20.07;69.83;100133.03;5057180;28;45534;-55
2022/08/15 06:08:35;;;;;;;;;22.00;21.67;;;;;20.11;68.99;100126.97;5056585;28;46078;-57
2022/08/15 06:11:04;;;;;;;;;26.67;17.67;;;;;20.15;69.01;100114.66;5056513;28;45296;-53
2022/08/15 06:13:37;;;;;;;;;25.00;21.67;;;;;20.22;69.14;100119.16;5056356;28;45550;-55
2022/08/15 06:16:16;;;;;;;;;21.67;19.67;;;;;20.20;68.33;100113.97;5056602;28;45510;-54
2022/08/15 06:18:44;;;;;;;;;23.33;21.67;;;;;20.28;68.25;100112.88;5056069;28;46383;-55
2022/08/15 06:21:14;;;;;;;;;19.00;18.00;;;;;20.40;68.36;100121.88;5056467;28;45312;-54
2022/08/15 06:23:47;;;;;;;;;20.67;18.67;;;;;20.46;67.43;100120.13;5056536;28;45355;-55
2022/08/15 06:26:41;;;;;;;;;23.33;22.00;;;;;20.48;67.23;100115.31;5056580;28;45486;-56
2022/08/15 06:29:23;;;;;;;;;22.33;19.00;;;;;20.53;67.12;100116.31;5055938;28;47169;-55
2022/08/15 06:31:57;;;;;;;;;21.67;18.00;;;;;20.61;67.13;100110.59;5079572;27;45534;-57
2022/08/15 06:34:39;;;;;;;;;18.33;17.33;;;;;20.64;66.78;100115.53;5098906;27;45169;-54
2022/08/15 06:37:22;;;;;;;;;25.00;24.00;;;;;20.68;66.36;100108.63;5099544;27;45439;-56
2022/08/15 06:40:01;;;;;;;;;18.33;18.33;;;;;20.74;66.77;100108.78;5098950;27;46591;-56
2022/08/15 06:42:40;;;;;;;;;25.33;22.00;;;;;20.77;66.05;100108.31;5114847;27;45312;-55
2022/08/15 06:45:16;;;;;;;;;16.67;15.00;;;;;20.80;65.92;100100.56;5098927;27;45422;-52
2022/08/15 06:47:43;;;;;;;;;22.67;20.33;;;;;20.93;65.92;100103.06;5099034;27;45259;-54
2022/08/15 06:50:15;;;;;;;;;25.00;19.33;;;;;20.97;65.25;100116.16;5098931;27;46115;-57
2022/08/15 06:52:49;;;;;;;;;25.00;19.67;;;;;21.00;65.74;100121.91;5097320;27;45299;-55
2022/08/15 06:55:15;;;;;;;;;18.00;16.67;;;;;21.09;65.76;100115.13;5099054;27;45307;-56
2022/08/15 06:58:03;;;;;;;;;18.25;15.75;;;;;21.22;64.92;100105.97;5098936;27;45504;-57
2022/08/15 07:00:51;;;;;;;;;16.50;15.50;;;;;21.39;64.83;100109.69;5098903;27;45916;-57
2022/08/15 07:03:38;;;;;;;;;20.00;19.00;;;;;21.57;63.73;100111.47;5055822;28;45348;-57
2022/08/15 07:06:04;;;;;;;;;18.25;14.50;;;;;21.73;63.65;100101.81;5055841;28;45349;-55
2022/08/15 07:08:54;;;;;;;;;22.25;18.00;;;;;22.01;62.46;100106.53;5055997;28;45459;-54
2022/08/15 07:11:45;;;;;;;;;19.00;17.75;;;;;22.40;61.76;100104.13;5055609;28;46425;-56
2022/08/15 07:14:16;;;;;;;;;18.50;17.00;;;;;22.95;60.38;100110.91;5055159;28;45355;-56
2022/08/15 07:17:15;;;;;;;;;21.75;16.00;;;;;23.44;59.54;100106.59;5055803;28;45352;-56
2022/08/15 07:19:40;;;;;;;;;16.75;16.75;;;;;23.95;58.05;100110.09;5055733;28;45368;-56
2022/08/15 07:22:07;;;;;;;;;16.00;14.75;;;;;24.25;57.27;100100.72;5055175;28;45596;-56
2022/08/15 07:24:33;;;;;;;;;14.00;10.00;;;;;24.58;55.43;100095.16;5055433;28;45449;-55
2022/08/15 07:27:04;;;;;;;;;17.50;16.00;;;;;25.18;55.25;100103.41;5055577;28;45364;-56
2022/08/15 07:29:41;;;;;;;;;18.25;16.00;;;;;25.93;53.59;100101.56;5055461;28;45320;-54
2022/08/15 07:32:14;;;;;;;;;22.00;17.50;;;;;26.38;51.96;100103.69;5055354;28;46246;-54
2022/08/15 07:35:11;;;;;;;;;14.80;14.80;;;;;26.75;50.40;100100.81;5055276;28;45441;-54
2022/08/15 07:37:41;;;;;;;;;16.40;14.80;;;;;27.44;48.87;100099.56;5055176;28;45463;-55
2022/08/15 07:40:38;;;;;;;;;16.00;14.25;;;;;27.85;48.07;100110.44;5073654;27;45522;-54
2022/08/15 07:43:23;;;;;;;;;19.00;19.00;;;;;28.10;48.30;100099.44;5097803;27;45848;-53
2022/08/15 07:45:51;;;;;;;;;18.60;14.80;;;;;28.65;46.05;100101.41;5097891;27;45380;-53
2022/08/15 07:48:26;;;;;;;;;14.60;12.00;;;;;29.17;45.64;100106.31;5097859;27;45165;-54
2022/08/15 07:51:06;;;;;;;;;12.00;11.60;;;;;29.63;45.35;100102.41;5098463;27;45418;-54
2022/08/15 07:53:32;;;;;;;;;12.00;11.80;;;;;30.13;43.96;100103.78;5079322;27;46104;-52
2022/08/15 07:56:12;;;;;;;;;15.60;13.20;;;;;30.29;45.50;100046.78;5097960;27;45268;-55
2022/08/15 07:58:40;;;;;;;;;14.40;12.40;;;;;31.06;39.76;100098.72;5097897;27;45699;-55
2022/08/15 08:01:31;;;;;;;;;14.40;12.80;;;;;31.45;40.24;100103.84;5097931;27;45554;-56
2022/08/15 08:04:05;;;;;;;;;14.80;10.60;;;;;32.26;38.50;100095.19;5097238;27;45313;-56
2022/08/15 08:06:37;;;;;;;;;10.80;10.60;;;;;32.62;37.30;100095.28;5097769;27;45358;-55
2022/08/15 08:09:24;;;;;;;;;15.80;13.40;;;;;31.80;39.31;100099.63;5096997;27;45410;-56
2022/08/15 08:11:55;;;;;;;;;13.80;13.20;;;;;31.12;39.98;100103.00;5097684;27;45293;-53
2022/08/15 08:14:21;;;;;;;;;10.20;10.20;;;;;30.55;40.68;100107.63;5097237;27;47249;-54
2022/08/15 08:16:55;;;;;;;;;13.75;11.00;;;;;29.73;43.22;100103.09;5097817;27;45326;-56
2022/08/15 08:19:44;;;;;;;;;12.20;12.20;;;;;28.90;42.74;100089.50;5097432;27;45428;-53
2022/08/15 08:22:18;;;;;;;;;10.40;10.40;;;;;28.34;43.89;100098.81;5097613;27;45296;-53
2022/08/15 08:25:06;;;;;;;;;15.00;13.80;;;;;27.55;45.89;100105.81;5097471;27;45396;-55
2022/08/15 08:27:51;;;;;;;;;11.00;11.00;;;;;26.83;47.60;100105.72;5097239;27;45243;-53
2022/08/15 08:30:22;;;;;;;;;13.60;11.60;;;;;26.45;47.93;100087.91;5097330;27;45373;-54
2022/08/15 08:33:13;;;;;;;;;10.60;9.60;;;;;26.13;48.75;100109.84;5097719;27;45305;-54
2022/08/15 08:36:02;;;;;;;;;13.80;12.80;;;;;26.34;49.01;100100.66;5097044;27;45912;-55
2022/08/15 08:38:44;;;;;;;;;7.00;7.00;;;;;27.06;47.12;100101.69;5097177;27;45333;-54
2022/08/15 08:41:25;;;;;;;;;13.80;12.80;;;;;28.78;44.16;100101.63;5097559;27;45384;-56
2022/08/15 08:44:24;;;;;;;;;11.80;10.00;;;;;29.28;43.01;100096.88;5097611;27;45415;-54
2022/08/15 08:47:14;;;;;;;;;8.40;7.60;;;;;28.18;45.28;100102.69;5097399;27;46136;-56
2022/08/15 08:49:51;;;;;;;;;11.00;9.80;;;;;27.30;45.94;100110.19;5097324;27;45747;-54
2022/08/15 08:52:43;;;;;;;;;11.60;9.80;;;;;26.56;47.75;100097.78;5097280;27;45328;-52
2022/08/15 08:55:18;;;;;;;;;8.00;8.00;;;;;26.06;48.27;100101.06;5097457;27;45325;-54
2022/08/15 08:57:52;;;;;;;;;11.60;8.60;;;;;25.72;49.90;100095.94;5096777;27;46223;-53
2022/08/15 09:00:22;;;;;;;;;11.40;10.00;;;;;25.55;50.27;100103.44;5096881;27;45452;-54
2022/08/15 09:03:04;;;;;;;;;15.40;11.00;;;;;25.16;51.20;100092.78;5097324;27;45324;-54
2022/08/15 09:05:41;;;;;;;;;9.80;9.60;;;;;24.89;52.51;100109.09;5097407;27;45355;-55
2022/08/15 09:08:24;;;;;;;;;12.60;11.00;;;;;24.87;51.59;100106.63;5096834;27;45353;-54
2022/08/15 09:10:54;;;;;;;;;9.80;9.80;;;;;24.58;53.33;100110.66;5097032;27;45240;-55
2022/08/15 09:13:34;;;;;;;;;14.40;11.40;;;;;24.30;53.95;100103.50;5097036;27;45276;-54
2022/08/15 09:16:19;;;;;;;;;4.20;3.40;;;;;24.36;54.34;100119.63;5099699;27;45260;-56
2022/08/15 09:19:04;;;;;;;;;8.60;7.00;;;;;24.43;53.91;100118.63;5100241;27;47291;-55
2022/08/15 09:21:31;;;;;;;;;4.80;4.80;;;;;24.71;52.99;100057.78;5100507;27;45460;-54
2022/08/15 09:23:58;;;;;;;;;5.40;5.00;;;;;26.23;50.84;100111.78;5100588;27;45287;-56
2022/08/15 09:27:04;;;;;;;;;5.00;4.60;;;;;27.20;48.12;100114.84;5100523;27;45318;-55
2022/08/15 09:29:32;;;;;;;;;3.20;2.00;;;;;26.78;48.21;100110.38;5100010;27;46283;-53
2022/08/15 09:32:28;;;;;;;;;5.00;5.00;;;;;27.34;47.88;100105.81;5100274;27;45404;-56
2022/08/15 09:35:14;;;;;;;;;4.00;4.00;;;;;28.12;46.54;100109.28;5100283;27;45239;-56
2022/08/15 09:38:05;;;;;;;;;5.00;5.00;;;;;27.60;47.39;100114.84;5100214;27;45351;-54
2022/08/15 09:40:38;;;;;;;;;5.60;4.80;;;;;28.34;46.67;100104.28;5100106;27;46063;-54
2022/08/15 09:43:29;;;;;;;;;1.80;1.80;;;;;30.51;42.50;100110.19;5099965;27;45379;-52
2022/08/15 09:46:07;;;;;;;;;4.40;3.00;;;;;31.66;39.45;100100.75;5099975;27;45291;-54
2022/08/15 09:48:59;;;;;;;;;3.20;3.20;;;;;31.00;40.96;100108.13;5100360;27;45497;-54
2022/08/15 09:51:57;;;;;;;;;3.40;3.40;;;;;31.29;40.75;100105.22;5099940;27;46200;-54
2022/08/15 09:54:25;;;;;;;;;6.20;4.80;;;;;30.37;41.71;100114.75;5099828;27;45259;-56
2022/08/15 09:57:26;;;;;;;;;5.00;4.40;;;;;29.23;43.57;100120.78;5100188;27;45351;-55
2022/08/15 10:00:03;;;;;;;;;4.60;4.60;;;;;28.24;45.31;100120.75;5095864;27;45300;-53
2022/08/15 10:02:32;;;;;;;;;6.00;6.00;;;;;27.36;46.78;100119.22;5099766;27;47273;-55
2022/08/15 10:04:57;;;;;;;;;8.40;6.00;;;;;26.72;47.89;100125.09;5099586;27;45452;-56
2022/08/15 10:07:46;;;;;;;;;4.00;4.00;;;;;26.00;49.62;100121.19;5099922;27;45432;-55
2022/08/15 10:10:14;;;;;;;;;4.40;4.40;;;;;25.25;50.63;100129.34;5099790;27;45540;-55
2022/08/15 10:13:21;;;;;;;;;5.20;5.20;;;;;24.72;53.12;100130.13;5081201;27;47079;-55
2022/08/15 10:15:49;;;;;;;;;5.20;5.20;;;;;24.36;53.65;100132.41;5099408;27;45363;-53
2022/08/15 10:18:23;;;;;;;;;6.20;6.20;;;;;24.18;54.91;100130.78;5099751;27;45399;-54
2022/08/15 10:21:17;;;;;;;;;9.00;7.00;;;;;24.08;55.35;100130.66;5099774;27;45231;-52
2022/08/15 10:23:45;;;;;;;;;7.40;7.40;;;;;24.01;55.79;100132.72;5099521;27;46005;-54
2022/08/15 10:26:34;;;;;;;;;6.00;5.80;;;;;24.00;55.70;100133.81;5099087;27;45238;-53
2022/08/15 10:29:08;;;;;;;;;7.40;7.40;;;;;23.99;55.55;100137.59;5099250;27;45449;-51
2022/08/15 10:31:56;;;;;;;;;7.60;7.20;;;;;23.79;54.67;100122.63;5099248;27;45287;-52
2022/08/15 10:34:38;;;;;;;;;11.00;9.40;;;;;23.68;55.61;100123.53;5099130;27;46310;-55
2022/08/15 10:37:09;;;;;;;;;7.60;7.20;;;;;23.65;56.46;100132.22;5099062;27;45435;-53
2022/08/15 10:40:30;;;;;;;;;6.40;6.40;;;;;23.59;56.29;100125.00;5098937;27;45299;-53
2022/08/15 10:43:25;;;;;;;;;7.80;7.80;;;;;23.42;55.77;100130.44;5035915;28;45454;-53
2022/08/15 10:46:04;;;;;;;;;7.60;7.60;;;;;23.33;57.93;100131.91;5035606;28;47186;-54
2022/08/15 10:48:49;;;;;;;;;7.80;7.80;;;;;23.35;57.66;100132.50;5035796;28;45250;-55
2022/08/15 10:51:31;;;;;;;;;8.00;8.00;;;;;23.46;57.68;100130.78;5035804;28;45379;-53
2022/08/15 10:53:56;;;;;;;;;9.00;9.00;;;;;23.54;57.42;100130.38;5036078;28;45342;-53
2022/08/15 10:56:27;;;;;;;;;9.00;8.50;;;;;23.54;57.21;100128.47;5035378;28;46288;-54
2022/08/15 10:59:06;;;;;;;;;7.00;7.00;;;;;23.55;57.57;100129.28;5035481;28;45282;-53
2022/08/15 11:01:33;;;;;;;;;9.80;8.00;;;;;23.12;57.93;100090.84;5035336;28;45463;-53
2022/08/15 11:04:05;;;;;;;;;7.75;7.75;;;;;23.45;57.62;100129.13;5036015;28;45291;-56
2022/08/15 11:06:37;;;;;;;;;11.00;9.00;;;;;23.51;57.58;100126.28;5035428;28;46328;-54
2022/08/15 11:09:14;;;;;;;;;7.80;7.80;;;;;23.59;57.27;100120.41;5035505;28;45316;-53
2022/08/15 11:11:50;;;;;;;;;11.00;9.80;;;;;23.62;57.63;100111.75;5035613;28;45504;-54
2022/08/15 11:14:26;;;;;;;;;8.75;7.00;;;;;23.72;57.93;100121.16;5035702;28;45561;-52
2022/08/15 11:16:52;;;;;;;;;9.80;8.60;;;;;23.71;57.91;100123.06;5061176;27;45987;-54
2022/08/15 11:19:28;;;;;;;;;9.20;9.20;;;;;23.72;57.53;100116.53;5098230;27;45424;-55
2022/08/15 11:21:57;;;;;;;;;8.80;8.60;;;;;23.81;57.35;100119.69;5098539;27;45218;-53
2022/08/15 11:24:33;;;;;;;;;10.75;8.00;;;;;23.93;57.28;100122.28;5098568;27;45409;-54
2022/08/15 11:27:17;;;;;;;;;9.00;7.40;;;;;23.94;57.07;100129.38;5098198;27;46430;-53
2022/08/15 11:29:44;;;;;;;;;8.40;5.80;;;;;23.91;56.79;100130.69;5096952;27;45526;-60
2022/08/15 11:32:31;;;;;;;;;11.40;9.80;;;;;23.81;57.36;100123.22;5098354;27;45394;-58
2022/08/15 11:35:02;;;;;;;;;11.25;8.50;;;;;23.87;57.46;100129.56;5098411;27;45425;-57
2022/08/15 11:37:38;;;;;;;;;7.00;6.75;;;;;23.88;57.34;100134.72;5097167;27;45368;-56
2022/08/15 11:40:08;;;;;;;;;6.00;6.00;;;;;23.87;57.40;100132.25;5098100;27;45453;-54
2022/08/15 11:42:38;;;;;;;;;11.20;8.20;;;;;23.83;57.37;100134.66;5098095;27;45462;-57
2022/08/15 11:45:03;;;;;;;;;13.75;8.75;;;;;23.78;57.98;100131.06;5098428;27;45168;-56